sensor_id;sensor_type;location;lat;lon;timestamp;P1;durP1;ratioP1;P2;durP2;ratioP2
32533;SDS011;18973;48.580;8.912;2024-03-23T00:53:52;4.13;;;3.33;;
32533;SDS011;18973;48.580;8.912;2024-03-23T00:56:18;6.93;;;3.88;;
32533;SDS011;18973;48.580;8.912;2024-03-23T00:58:44;5.40;;;3.53;;
32533;SDS011;18973;48.580;8.912;2024-03-23T01:01:10;5.43;;;3.05;;
32533;SDS011;18973;48.580;8.912;2024-03-23T01:03:35;6.93;;;3.67;;
32533;SDS011;18973;48.580;8.912;2024-03-23T01:06:01;4.45;;;3.03;;
32533;SDS011;18973;48.580;8.912;2024-03-23T01:08:28;6.78;;;3.50;;
32533;SDS011;18973;48.580;8.912;2024-03-23T01:10:57;5.00;;;3.33;;
32533;SDS011;18973;48.580;8.912;2024-03-23T01:13:24;4.72;;;3.33;;
32533;SDS011;18973;48.580;8.912;2024-03-23T01:15:50;4.90;;;3.45;;
32533;SDS011;18973;48.580;8.912;2024-03-23T01:18:17;4.63;;;3.33;;
32533;SDS011;18973;48.580;8.912;2024-03-23T01:20:43;5.38;;;3.35;;
32533;SDS011;18973;48.580;8.912;2024-03-23T01:23:09;5.55;;;3.28;;
32533;SDS011;18973;48.580;8.912;2024-03-23T01:25:35;6.50;;;3.60;;
32533;SDS011;18973;48.580;8.912;2024-03-23T01:28:01;7.05;;;3.90;;
32533;SDS011;18973;48.580;8.912;2024-03-23T01:30:27;11.68;;;4.18;;
32533;SDS011;18973;48.580;8.912;2024-03-23T01:32:52;5.70;;;3.70;;
32533;SDS011;18973;48.580;8.912;2024-03-23T01:35:18;6.22;;;3.53;;
32533;SDS011;18973;48.580;8.912;2024-03-23T01:37:44;7.45;;;4.63;;
32533;SDS011;18973;48.580;8.912;2024-03-23T01:40:10;5.93;;;3.35;;
32533;SDS011;18973;48.580;8.912;2024-03-23T01:42:38;6.88;;;3.75;;
32533;SDS011;18973;48.580;8.912;2024-03-23T01:45:06;5.47;;;3.50;;
32533;SDS011;18973;48.580;8.912;2024-03-23T01:47:33;4.75;;;3.20;;
32533;SDS011;18973;48.580;8.912;2024-03-23T01:49:59;6.57;;;3.00;;
32533;SDS011;18973;48.580;8.912;2024-03-23T01:52:26;4.07;;;3.60;;
32533;SDS011;18973;48.580;8.912;2024-03-23T01:54:52;6.25;;;3.55;;
32533;SDS011;18973;48.580;8.912;2024-03-23T01:57:18;5.82;;;3.15;;
32533;SDS011;18973;48.580;8.912;2024-03-23T01:59:46;5.45;;;3.97;;
32533;SDS011;18973;48.580;8.912;2024-03-23T02:02:12;4.97;;;3.83;;
32533;SDS011;18973;48.580;8.912;2024-03-23T02:04:38;4.88;;;2.92;;
32533;SDS011;18973;48.580;8.912;2024-03-23T02:07:04;9.75;;;4.13;;
32533;SDS011;18973;48.580;8.912;2024-03-23T02:09:32;6.10;;;3.58;;
32533;SDS011;18973;48.580;8.912;2024-03-23T02:11:58;6.45;;;3.05;;
32533;SDS011;18973;48.580;8.912;2024-03-23T02:14:24;8.15;;;3.03;;
32533;SDS011;18973;48.580;8.912;2024-03-23T02:16:49;7.45;;;3.20;;
32533;SDS011;18973;48.580;8.912;2024-03-23T02:19:15;3.75;;;3.30;;
32533;SDS011;18973;48.580;8.912;2024-03-23T02:21:41;4.40;;;3.42;;
32533;SDS011;18973;48.580;8.912;2024-03-23T02:24:06;3.88;;;3.25;;
32533;SDS011;18973;48.580;8.912;2024-03-23T02:26:32;3.10;;;2.70;;
32533;SDS011;18973;48.580;8.912;2024-03-23T02:28:57;6.93;;;3.03;;
32533;SDS011;18973;48.580;8.912;2024-03-23T02:31:23;8.45;;;3.20;;
32533;SDS011;18973;48.580;8.912;2024-03-23T02:33:49;7.10;;;3.25;;
32533;SDS011;18973;48.580;8.912;2024-03-23T02:36:14;4.10;;;2.80;;
32533;SDS011;18973;48.580;8.912;2024-03-23T02:38:40;2.95;;;2.63;;
32533;SDS011;18973;48.580;8.912;2024-03-23T02:41:06;4.63;;;2.78;;
32533;SDS011;18973;48.580;8.912;2024-03-23T02:43:31;3.97;;;3.13;;
32533;SDS011;18973;48.580;8.912;2024-03-23T02:45:57;7.20;;;3.08;;
32533;SDS011;18973;48.580;8.912;2024-03-23T02:48:23;4.85;;;3.60;;
32533;SDS011;18973;48.580;8.912;2024-03-23T02:50:49;3.65;;;2.80;;
32533;SDS011;18973;48.580;8.912;2024-03-23T02:53:15;7.60;;;3.28;;
32533;SDS011;18973;48.580;8.912;2024-03-23T02:55:41;6.68;;;3.42;;
32533;SDS011;18973;48.580;8.912;2024-03-23T02:58:06;5.82;;;3.70;;
32533;SDS011;18973;48.580;8.912;2024-03-23T03:00:32;3.90;;;3.22;;
32533;SDS011;18973;48.580;8.912;2024-03-23T03:02:58;9.35;;;3.50;;
32533;SDS011;18973;48.580;8.912;2024-03-23T03:05:23;5.63;;;3.45;;
32533;SDS011;18973;48.580;8.912;2024-03-23T03:07:50;4.63;;;2.95;;
32533;SDS011;18973;48.580;8.912;2024-03-23T03:10:15;6.05;;;3.03;;
32533;SDS011;18973;48.580;8.912;2024-03-23T03:12:41;5.28;;;3.45;;
32533;SDS011;18973;48.580;8.912;2024-03-23T03:15:07;5.03;;;3.10;;
32533;SDS011;18973;48.580;8.912;2024-03-23T03:17:34;5.80;;;3.25;;
32533;SDS011;18973;48.580;8.912;2024-03-23T03:20:00;5.60;;;3.38;;
32533;SDS011;18973;48.580;8.912;2024-03-23T03:22:25;4.82;;;3.63;;
32533;SDS011;18973;48.580;8.912;2024-03-23T03:24:51;6.18;;;3.05;;
32533;SDS011;18973;48.580;8.912;2024-03-23T03:27:17;3.85;;;3.42;;
32533;SDS011;18973;48.580;8.912;2024-03-23T03:29:42;8.10;;;4.75;;
32533;SDS011;18973;48.580;8.912;2024-03-23T03:32:08;6.93;;;3.35;;
32533;SDS011;18973;48.580;8.912;2024-03-23T03:34:34;6.72;;;3.75;;
32533;SDS011;18973;48.580;8.912;2024-03-23T03:36:59;4.53;;;3.03;;
32533;SDS011;18973;48.580;8.912;2024-03-23T03:39:25;8.80;;;3.20;;
32533;SDS011;18973;48.580;8.912;2024-03-23T03:41:51;5.43;;;3.22;;
32533;SDS011;18973;48.580;8.912;2024-03-23T03:44:17;4.80;;;3.35;;
32533;SDS011;18973;48.580;8.912;2024-03-23T03:46:43;5.07;;;3.22;;
32533;SDS011;18973;48.580;8.912;2024-03-23T03:49:08;4.85;;;3.47;;
32533;SDS011;18973;48.580;8.912;2024-03-23T03:51:34;5.75;;;3.38;;
32533;SDS011;18973;48.580;8.912;2024-03-23T03:54:00;5.80;;;3.45;;
32533;SDS011;18973;48.580;8.912;2024-03-23T03:56:26;4.32;;;3.03;;
32533;SDS011;18973;48.580;8.912;2024-03-23T03:58:52;6.43;;;3.35;;
32533;SDS011;18973;48.580;8.912;2024-03-23T04:01:19;4.15;;;3.28;;
32533;SDS011;18973;48.580;8.912;2024-03-23T04:03:45;5.57;;;3.30;;
32533;SDS011;18973;48.580;8.912;2024-03-23T04:06:11;3.45;;;3.10;;
32533;SDS011;18973;48.580;8.912;2024-03-23T04:08:37;3.78;;;3.08;;
32533;SDS011;18973;48.580;8.912;2024-03-23T04:11:03;4.88;;;3.70;;
32533;SDS011;18973;48.580;8.912;2024-03-23T04:13:29;5.68;;;3.35;;
32533;SDS011;18973;48.580;8.912;2024-03-23T04:15:55;5.80;;;3.08;;
32533;SDS011;18973;48.580;8.912;2024-03-23T04:18:21;5.20;;;3.47;;
32533;SDS011;18973;48.580;8.912;2024-03-23T04:20:48;9.27;;;3.38;;
32533;SDS011;18973;48.580;8.912;2024-03-23T04:23:14;3.90;;;2.97;;
32533;SDS011;18973;48.580;8.912;2024-03-23T04:25:39;5.35;;;3.10;;
32533;SDS011;18973;48.580;8.912;2024-03-23T04:28:05;5.03;;;2.90;;
32533;SDS011;18973;48.580;8.912;2024-03-23T04:30:31;4.65;;;3.05;;
32533;SDS011;18973;48.580;8.912;2024-03-23T04:32:57;5.93;;;3.15;;
32533;SDS011;18973;48.580;8.912;2024-03-23T04:35:23;5.70;;;3.10;;
32533;SDS011;18973;48.580;8.912;2024-03-23T04:37:53;7.03;;;4.03;;
32533;SDS011;18973;48.580;8.912;2024-03-23T04:40:19;7.35;;;3.28;;
32533;SDS011;18973;48.580;8.912;2024-03-23T04:42:45;4.18;;;3.08;;
32533;SDS011;18973;48.580;8.912;2024-03-23T04:45:11;3.47;;;3.17;;
32533;SDS011;18973;48.580;8.912;2024-03-23T04:47:37;6.03;;;3.30;;
32533;SDS011;18973;48.580;8.912;2024-03-23T04:50:03;9.18;;;3.50;;
32533;SDS011;18973;48.580;8.912;2024-03-23T04:52:30;6.88;;;3.83;;
32533;SDS011;18973;48.580;8.912;2024-03-23T04:54:55;9.35;;;4.30;;
32533;SDS011;18973;48.580;8.912;2024-03-23T04:57:21;8.00;;;3.90;;
32533;SDS011;18973;48.580;8.912;2024-03-23T04:59:47;5.38;;;4.25;;
32533;SDS011;18973;48.580;8.912;2024-03-23T05:02:13;6.90;;;4.53;;
32533;SDS011;18973;48.580;8.912;2024-03-23T05:04:40;6.35;;;3.72;;
32533;SDS011;18973;48.580;8.912;2024-03-23T05:07:06;5.88;;;3.97;;
32533;SDS011;18973;48.580;8.912;2024-03-23T05:09:32;5.35;;;4.25;;
32533;SDS011;18973;48.580;8.912;2024-03-23T05:11:58;7.55;;;4.68;;
32533;SDS011;18973;48.580;8.912;2024-03-23T05:14:25;6.78;;;5.13;;
32533;SDS011;18973;48.580;8.912;2024-03-23T05:16:52;5.10;;;3.97;;
32533;SDS011;18973;48.580;8.912;2024-03-23T05:19:18;6.95;;;4.20;;
32533;SDS011;18973;48.580;8.912;2024-03-23T05:21:43;6.50;;;5.15;;
32533;SDS011;18973;48.580;8.912;2024-03-23T05:24:09;8.30;;;5.55;;
32533;SDS011;18973;48.580;8.912;2024-03-23T05:26:35;8.13;;;5.32;;
32533;SDS011;18973;48.580;8.912;2024-03-23T05:29:01;10.57;;;6.47;;
32533;SDS011;18973;48.580;8.912;2024-03-23T05:31:28;10.95;;;6.28;;
32533;SDS011;18973;48.580;8.912;2024-03-23T05:33:56;10.80;;;6.63;;
32533;SDS011;18973;48.580;8.912;2024-03-23T05:36:22;10.50;;;7.35;;
32533;SDS011;18973;48.580;8.912;2024-03-23T05:38:49;11.70;;;6.18;;
32533;SDS011;18973;48.580;8.912;2024-03-23T05:41:15;10.20;;;6.20;;
32533;SDS011;18973;48.580;8.912;2024-03-23T05:43:41;7.18;;;5.70;;
32533;SDS011;18973;48.580;8.912;2024-03-23T05:46:07;9.35;;;5.28;;
32533;SDS011;18973;48.580;8.912;2024-03-23T05:48:34;6.40;;;5.15;;
32533;SDS011;18973;48.580;8.912;2024-03-23T05:51:00;6.60;;;4.65;;
32533;SDS011;18973;48.580;8.912;2024-03-23T05:53:26;7.72;;;4.70;;
32533;SDS011;18973;48.580;8.912;2024-03-23T05:56:03;6.70;;;4.30;;
32533;SDS011;18973;48.580;8.912;2024-03-23T05:58:30;6.32;;;4.10;;
32533;SDS011;18973;48.580;8.912;2024-03-23T06:01:01;6.60;;;4.60;;
32533;SDS011;18973;48.580;8.912;2024-03-23T06:03:27;5.22;;;3.80;;
32533;SDS011;18973;48.580;8.912;2024-03-23T06:05:54;4.78;;;3.72;;
32533;SDS011;18973;48.580;8.912;2024-03-23T06:08:20;5.80;;;2.80;;
32533;SDS011;18973;48.580;8.912;2024-03-23T06:10:46;4.20;;;2.30;;
32533;SDS011;18973;48.580;8.912;2024-03-23T06:13:12;3.17;;;2.00;;
32533;SDS011;18973;48.580;8.912;2024-03-23T06:15:38;2.00;;;1.80;;
32533;SDS011;18973;48.580;8.912;2024-03-23T06:18:04;3.78;;;1.40;;
32533;SDS011;18973;48.580;8.912;2024-03-23T06:20:30;2.00;;;1.63;;
32533;SDS011;18973;48.580;8.912;2024-03-23T06:22:56;1.55;;;1.40;;
32533;SDS011;18973;48.580;8.912;2024-03-23T06:25:22;1.95;;;1.45;;
32533;SDS011;18973;48.580;8.912;2024-03-23T06:27:48;1.58;;;1.40;;
32533;SDS011;18973;48.580;8.912;2024-03-23T06:30:13;3.25;;;1.83;;
32533;SDS011;18973;48.580;8.912;2024-03-23T06:32:39;1.52;;;1.42;;
32533;SDS011;18973;48.580;8.912;2024-03-23T06:35:05;2.05;;;1.50;;
32533;SDS011;18973;48.580;8.912;2024-03-23T06:37:33;1.92;;;1.65;;
32533;SDS011;18973;48.580;8.912;2024-03-23T06:40:03;1.52;;;1.42;;
32533;SDS011;18973;48.580;8.912;2024-03-23T06:42:33;1.98;;;1.48;;
32533;SDS011;18973;48.580;8.912;2024-03-23T06:44:59;1.90;;;1.33;;
32533;SDS011;18973;48.580;8.912;2024-03-23T06:47:24;2.08;;;1.75;;
32533;SDS011;18973;48.580;8.912;2024-03-23T06:49:50;1.30;;;1.20;;
32533;SDS011;18973;48.580;8.912;2024-03-23T06:52:16;1.45;;;1.30;;
32533;SDS011;18973;48.580;8.912;2024-03-23T06:54:42;1.25;;;1.15;;
32533;SDS011;18973;48.580;8.912;2024-03-23T06:57:09;1.20;;;1.20;;
32533;SDS011;18973;48.580;8.912;2024-03-23T06:59:37;1.00;;;1.00;;
32533;SDS011;18973;48.580;8.912;2024-03-23T07:02:03;2.17;;;1.75;;
32533;SDS011;18973;48.580;8.912;2024-03-23T07:04:30;1.65;;;1.55;;
32533;SDS011;18973;48.580;8.912;2024-03-23T07:06:56;2.08;;;1.67;;
32533;SDS011;18973;48.580;8.912;2024-03-23T07:09:21;3.00;;;2.80;;
32533;SDS011;18973;48.580;8.912;2024-03-23T07:11:51;1.42;;;1.33;;
32533;SDS011;18973;48.580;8.912;2024-03-23T07:14:18;1.30;;;1.30;;
32533;SDS011;18973;48.580;8.912;2024-03-23T07:16:44;1.50;;;1.40;;
32533;SDS011;18973;48.580;8.912;2024-03-23T07:19:09;1.40;;;1.30;;
32533;SDS011;18973;48.580;8.912;2024-03-23T07:21:35;1.35;;;1.10;;
32533;SDS011;18973;48.580;8.912;2024-03-23T07:24:01;1.27;;;1.17;;
32533;SDS011;18973;48.580;8.912;2024-03-23T07:26:26;1.25;;;1.20;;
32533;SDS011;18973;48.580;8.912;2024-03-23T07:28:52;0.90;;;0.90;;
32533;SDS011;18973;48.580;8.912;2024-03-23T07:31:18;0.95;;;0.95;;
32533;SDS011;18973;48.580;8.912;2024-03-23T07:33:46;0.90;;;0.90;;
32533;SDS011;18973;48.580;8.912;2024-03-23T07:36:13;0.80;;;0.80;;
32533;SDS011;18973;48.580;8.912;2024-03-23T07:38:42;1.10;;;0.80;;
32533;SDS011;18973;48.580;8.912;2024-03-23T07:41:12;0.90;;;0.90;;
32533;SDS011;18973;48.580;8.912;2024-03-23T07:43:42;3.05;;;2.75;;
32533;SDS011;18973;48.580;8.912;2024-03-23T07:46:08;2.60;;;2.40;;
32533;SDS011;18973;48.580;8.912;2024-03-23T07:48:34;1.10;;;1.10;;
32533;SDS011;18973;48.580;8.912;2024-03-23T07:51:03;0.80;;;0.80;;
32533;SDS011;18973;48.580;8.912;2024-03-23T07:53:33;0.80;;;0.80;;
32533;SDS011;18973;48.580;8.912;2024-03-23T07:58:26;1.00;;;1.00;;
32533;SDS011;18973;48.580;8.912;2024-03-23T08:00:55;1.08;;;1.00;;
32533;SDS011;18973;48.580;8.912;2024-03-23T08:03:28;2.08;;;1.40;;
32533;SDS011;18973;48.580;8.912;2024-03-23T08:05:53;2.83;;;1.58;;
32533;SDS011;18973;48.580;8.912;2024-03-23T08:08:19;3.70;;;1.25;;
32533;SDS011;18973;48.580;8.912;2024-03-23T08:10:51;2.10;;;1.50;;
32533;SDS011;18973;48.580;8.912;2024-03-23T08:13:18;1.55;;;1.45;;
32533;SDS011;18973;48.580;8.912;2024-03-23T08:15:44;2.78;;;1.60;;
32533;SDS011;18973;48.580;8.912;2024-03-23T08:18:11;2.72;;;1.85;;
32533;SDS011;18973;48.580;8.912;2024-03-23T08:20:38;3.67;;;2.63;;
32533;SDS011;18973;48.580;8.912;2024-03-23T08:23:07;4.97;;;2.42;;
32533;SDS011;18973;48.580;8.912;2024-03-23T08:25:33;2.33;;;2.10;;
32533;SDS011;18973;48.580;8.912;2024-03-23T08:27:59;3.15;;;1.70;;
32533;SDS011;18973;48.580;8.912;2024-03-23T08:30:25;2.50;;;1.88;;
32533;SDS011;18973;48.580;8.912;2024-03-23T08:32:51;5.28;;;1.75;;
32533;SDS011;18973;48.580;8.912;2024-03-23T08:35:17;8.98;;;2.05;;
32533;SDS011;18973;48.580;8.912;2024-03-23T08:37:43;5.05;;;1.95;;
32533;SDS011;18973;48.580;8.912;2024-03-23T08:40:09;4.65;;;2.47;;
32533;SDS011;18973;48.580;8.912;2024-03-23T08:42:35;5.30;;;2.55;;
32533;SDS011;18973;48.580;8.912;2024-03-23T08:45:01;3.70;;;2.08;;
32533;SDS011;18973;48.580;8.912;2024-03-23T08:47:26;5.20;;;2.58;;
32533;SDS011;18973;48.580;8.912;2024-03-23T08:49:52;5.43;;;2.85;;
32533;SDS011;18973;48.580;8.912;2024-03-23T08:52:18;4.15;;;2.72;;
32533;SDS011;18973;48.580;8.912;2024-03-23T08:54:43;6.93;;;4.32;;
32533;SDS011;18973;48.580;8.912;2024-03-23T08:57:09;7.40;;;2.80;;
32533;SDS011;18973;48.580;8.912;2024-03-23T08:59:35;7.82;;;3.00;;
32533;SDS011;18973;48.580;8.912;2024-03-23T09:02:02;3.55;;;2.78;;
32533;SDS011;18973;48.580;8.912;2024-03-23T09:04:28;5.10;;;2.95;;
32533;SDS011;18973;48.580;8.912;2024-03-23T09:06:54;8.90;;;3.55;;
32533;SDS011;18973;48.580;8.912;2024-03-23T09:09:19;10.75;;;3.80;;
32533;SDS011;18973;48.580;8.912;2024-03-23T09:11:45;9.68;;;3.58;;
32533;SDS011;18973;48.580;8.912;2024-03-23T09:14:11;6.50;;;3.25;;
32533;SDS011;18973;48.580;8.912;2024-03-23T09:16:36;5.35;;;3.42;;
32533;SDS011;18973;48.580;8.912;2024-03-23T09:19:02;6.93;;;4.07;;
32533;SDS011;18973;48.580;8.912;2024-03-23T09:21:28;10.10;;;3.67;;
32533;SDS011;18973;48.580;8.912;2024-03-23T09:23:53;5.35;;;3.42;;
32533;SDS011;18973;48.580;8.912;2024-03-23T09:26:19;9.50;;;3.88;;
32533;SDS011;18973;48.580;8.912;2024-03-23T09:28:47;13.15;;;5.25;;
32533;SDS011;18973;48.580;8.912;2024-03-23T09:31:16;5.82;;;3.83;;
32533;SDS011;18973;48.580;8.912;2024-03-23T09:33:42;6.93;;;2.97;;
32533;SDS011;18973;48.580;8.912;2024-03-23T09:36:08;7.18;;;3.05;;
32533;SDS011;18973;48.580;8.912;2024-03-23T09:38:34;7.40;;;2.85;;
32533;SDS011;18973;48.580;8.912;2024-03-23T09:40:59;6.25;;;3.33;;
32533;SDS011;18973;48.580;8.912;2024-03-23T09:43:26;5.15;;;2.85;;
32533;SDS011;18973;48.580;8.912;2024-03-23T09:45:52;8.02;;;4.40;;
32533;SDS011;18973;48.580;8.912;2024-03-23T09:48:18;4.00;;;2.75;;
32533;SDS011;18973;48.580;8.912;2024-03-23T09:50:45;10.38;;;3.50;;
32533;SDS011;18973;48.580;8.912;2024-03-23T09:53:11;4.53;;;3.03;;
32533;SDS011;18973;48.580;8.912;2024-03-23T09:55:39;5.28;;;2.65;;
32533;SDS011;18973;48.580;8.912;2024-03-23T09:58:06;6.55;;;2.83;;
32533;SDS011;18973;48.580;8.912;2024-03-23T10:00:32;6.30;;;2.83;;
32533;SDS011;18973;48.580;8.912;2024-03-23T10:03:01;4.43;;;2.95;;
32533;SDS011;18973;48.580;8.912;2024-03-23T10:05:27;5.55;;;2.72;;
32533;SDS011;18973;48.580;8.912;2024-03-23T10:07:54;4.63;;;3.30;;
32533;SDS011;18973;48.580;8.912;2024-03-23T10:10:20;8.20;;;3.55;;
32533;SDS011;18973;48.580;8.912;2024-03-23T10:12:49;10.40;;;3.90;;
32533;SDS011;18973;48.580;8.912;2024-03-23T10:17:45;8.07;;;2.80;;
32533;SDS011;18973;48.580;8.912;2024-03-23T10:20:10;6.28;;;3.05;;
32533;SDS011;18973;48.580;8.912;2024-03-23T10:22:39;7.78;;;2.78;;
32533;SDS011;18973;48.580;8.912;2024-03-23T10:25:09;8.95;;;3.47;;
32533;SDS011;18973;48.580;8.912;2024-03-23T10:27:35;6.82;;;3.03;;
32533;SDS011;18973;48.580;8.912;2024-03-23T10:30:07;7.50;;;2.92;;
32533;SDS011;18973;48.580;8.912;2024-03-23T10:32:34;7.55;;;3.38;;
32533;SDS011;18973;48.580;8.912;2024-03-23T10:37:48;9.68;;;3.42;;
32533;SDS011;18973;48.580;8.912;2024-03-23T10:40:17;11.68;;;3.65;;
32533;SDS011;18973;48.580;8.912;2024-03-23T10:42:43;12.40;;;3.97;;
32533;SDS011;18973;48.580;8.912;2024-03-23T10:45:09;5.57;;;2.70;;
32533;SDS011;18973;48.580;8.912;2024-03-23T10:47:35;4.65;;;1.98;;
32533;SDS011;18973;48.580;8.912;2024-03-23T10:50:03;3.25;;;2.40;;
32533;SDS011;18973;48.580;8.912;2024-03-23T10:52:30;6.88;;;1.90;;
32533;SDS011;18973;48.580;8.912;2024-03-23T10:55:00;3.55;;;2.00;;
32533;SDS011;18973;48.580;8.912;2024-03-23T10:57:41;3.53;;;2.22;;
32533;SDS011;18973;48.580;8.912;2024-03-23T11:00:11;5.15;;;2.13;;
32533;SDS011;18973;48.580;8.912;2024-03-23T11:02:37;6.35;;;2.08;;
32533;SDS011;18973;48.580;8.912;2024-03-23T11:05:27;5.05;;;2.47;;
32533;SDS011;18973;48.580;8.912;2024-03-23T11:07:51;4.45;;;1.60;;
32533;SDS011;18973;48.580;8.912;2024-03-23T11:10:28;6.97;;;2.10;;
32533;SDS011;18973;48.580;8.912;2024-03-23T11:12:56;4.25;;;1.90;;
32533;SDS011;18973;48.580;8.912;2024-03-23T11:15:22;5.93;;;1.75;;
32533;SDS011;18973;48.580;8.912;2024-03-23T11:18:04;6.40;;;2.30;;
32533;SDS011;18973;48.580;8.912;2024-03-23T11:20:33;7.43;;;1.98;;
32533;SDS011;18973;48.580;8.912;2024-03-23T11:22:59;7.00;;;2.03;;
32533;SDS011;18973;48.580;8.912;2024-03-23T11:25:26;4.50;;;2.00;;
32533;SDS011;18973;48.580;8.912;2024-03-23T11:27:53;5.55;;;1.70;;
32533;SDS011;18973;48.580;8.912;2024-03-23T11:32:50;8.68;;;1.95;;
32533;SDS011;18973;48.580;8.912;2024-03-23T11:38:03;5.28;;;1.70;;
32533;SDS011;18973;48.580;8.912;2024-03-23T11:40:34;2.17;;;1.40;;
32533;SDS011;18973;48.580;8.912;2024-03-23T11:43:13;5.35;;;2.22;;
32533;SDS011;18973;48.580;8.912;2024-03-23T11:50:36;6.80;;;2.08;;
32533;SDS011;18973;48.580;8.912;2024-03-23T11:53:07;8.02;;;2.25;;
32533;SDS011;18973;48.580;8.912;2024-03-23T11:58:07;6.57;;;2.20;;
32533;SDS011;18973;48.580;8.912;2024-03-23T12:00:33;7.70;;;2.83;;
32533;SDS011;18973;48.580;8.912;2024-03-23T12:03:02;5.18;;;2.63;;
32533;SDS011;18973;48.580;8.912;2024-03-23T12:05:28;7.43;;;3.15;;
32533;SDS011;18973;48.580;8.912;2024-03-23T12:07:54;12.30;;;3.03;;
32533;SDS011;18973;48.580;8.912;2024-03-23T12:10:20;11.75;;;3.55;;
32533;SDS011;18973;48.580;8.912;2024-03-23T12:12:46;9.02;;;3.50;;
32533;SDS011;18973;48.580;8.912;2024-03-23T12:15:26;10.52;;;3.53;;
32533;SDS011;18973;48.580;8.912;2024-03-23T12:18:05;8.27;;;3.42;;
32533;SDS011;18973;48.580;8.912;2024-03-23T12:20:35;10.70;;;3.22;;
32533;SDS011;18973;48.580;8.912;2024-03-23T12:23:06;11.02;;;3.72;;
32533;SDS011;18973;48.580;8.912;2024-03-23T12:25:32;6.55;;;2.67;;
32533;SDS011;18973;48.580;8.912;2024-03-23T12:27:59;9.02;;;3.55;;
32533;SDS011;18973;48.580;8.912;2024-03-23T12:30:25;6.22;;;2.53;;
32533;SDS011;18973;48.580;8.912;2024-03-23T12:32:50;8.52;;;2.47;;
32533;SDS011;18973;48.580;8.912;2024-03-23T12:35:16;7.65;;;2.53;;
32533;SDS011;18973;48.580;8.912;2024-03-23T12:37:43;8.10;;;2.50;;
32533;SDS011;18973;48.580;8.912;2024-03-23T12:40:09;8.35;;;2.65;;
32533;SDS011;18973;48.580;8.912;2024-03-23T12:42:35;4.43;;;2.13;;
32533;SDS011;18973;48.580;8.912;2024-03-23T12:45:00;4.93;;;2.30;;
32533;SDS011;18973;48.580;8.912;2024-03-23T12:47:27;11.15;;;2.17;;
32533;SDS011;18973;48.580;8.912;2024-03-23T12:49:52;5.47;;;2.00;;
32533;SDS011;18973;48.580;8.912;2024-03-23T12:52:18;4.68;;;2.30;;
32533;SDS011;18973;48.580;8.912;2024-03-23T12:54:46;9.40;;;2.00;;
32533;SDS011;18973;48.580;8.912;2024-03-23T12:57:12;5.35;;;2.55;;
32533;SDS011;18973;48.580;8.912;2024-03-23T12:59:38;9.15;;;2.72;;
32533;SDS011;18973;48.580;8.912;2024-03-23T13:02:03;7.90;;;2.10;;
32533;SDS011;18973;48.580;8.912;2024-03-23T13:04:29;3.40;;;1.75;;
32533;SDS011;18973;48.580;8.912;2024-03-23T13:06:54;2.55;;;1.77;;
32533;SDS011;18973;48.580;8.912;2024-03-23T13:09:20;6.65;;;2.03;;
32533;SDS011;18973;48.580;8.912;2024-03-23T13:11:46;3.85;;;2.22;;
32533;SDS011;18973;48.580;8.912;2024-03-23T13:14:11;2.35;;;2.00;;
32533;SDS011;18973;48.580;8.912;2024-03-23T13:16:39;5.85;;;2.10;;
32533;SDS011;18973;48.580;8.912;2024-03-23T13:19:05;1.70;;;1.45;;
32533;SDS011;18973;48.580;8.912;2024-03-23T13:21:30;4.68;;;1.70;;
32533;SDS011;18973;48.580;8.912;2024-03-23T13:23:56;4.70;;;1.80;;
32533;SDS011;18973;48.580;8.912;2024-03-23T13:26:22;2.10;;;1.50;;
32533;SDS011;18973;48.580;8.912;2024-03-23T13:28:48;3.60;;;1.55;;
32533;SDS011;18973;48.580;8.912;2024-03-23T13:31:13;2.53;;;1.67;;
32533;SDS011;18973;48.580;8.912;2024-03-23T13:33:39;3.53;;;3.22;;
32533;SDS011;18973;48.580;8.912;2024-03-23T13:36:10;4.30;;;1.73;;
32533;SDS011;18973;48.580;8.912;2024-03-23T13:38:38;7.82;;;1.60;;
32533;SDS011;18973;48.580;8.912;2024-03-23T13:41:04;5.70;;;1.83;;
32533;SDS011;18973;48.580;8.912;2024-03-23T13:43:31;4.30;;;1.80;;
32533;SDS011;18973;48.580;8.912;2024-03-23T13:45:57;6.55;;;1.63;;
32533;SDS011;18973;48.580;8.912;2024-03-23T13:48:24;8.38;;;1.58;;
32533;SDS011;18973;48.580;8.912;2024-03-23T13:51:04;28.23;;;10.73;;
32533;SDS011;18973;48.580;8.912;2024-03-23T13:53:30;38.33;;;11.40;;
32533;SDS011;18973;48.580;8.912;2024-03-23T13:55:57;47.40;;;14.57;;
32533;SDS011;18973;48.580;8.912;2024-03-23T13:58:23;10.52;;;4.03;;
32533;SDS011;18973;48.580;8.912;2024-03-23T14:00:50;4.55;;;1.90;;
32533;SDS011;18973;48.580;8.912;2024-03-23T14:03:16;8.38;;;3.63;;
32533;SDS011;18973;48.580;8.912;2024-03-23T14:05:43;4.85;;;1.77;;
32533;SDS011;18973;48.580;8.912;2024-03-23T14:08:10;7.20;;;2.50;;
32533;SDS011;18973;48.580;8.912;2024-03-23T14:10:36;4.38;;;2.03;;
32533;SDS011;18973;48.580;8.912;2024-03-23T14:13:05;3.33;;;1.80;;
32533;SDS011;18973;48.580;8.912;2024-03-23T14:15:31;5.85;;;2.28;;
32533;SDS011;18973;48.580;8.912;2024-03-23T14:17:57;5.85;;;2.20;;
32533;SDS011;18973;48.580;8.912;2024-03-23T14:20:23;7.68;;;2.70;;
32533;SDS011;18973;48.580;8.912;2024-03-23T14:22:49;3.65;;;1.58;;
32533;SDS011;18973;48.580;8.912;2024-03-23T14:25:15;7.13;;;2.13;;
32533;SDS011;18973;48.580;8.912;2024-03-23T14:27:43;6.32;;;1.92;;
32533;SDS011;18973;48.580;8.912;2024-03-23T14:30:09;3.75;;;1.55;;
32533;SDS011;18973;48.580;8.912;2024-03-23T14:32:35;5.63;;;2.90;;
32533;SDS011;18973;48.580;8.912;2024-03-23T14:35:05;4.78;;;2.50;;
32533;SDS011;18973;48.580;8.912;2024-03-23T14:37:36;6.70;;;1.92;;
32533;SDS011;18973;48.580;8.912;2024-03-23T14:40:03;2.63;;;1.70;;
32533;SDS011;18973;48.580;8.912;2024-03-23T14:42:29;2.45;;;1.38;;
32533;SDS011;18973;48.580;8.912;2024-03-23T14:44:57;3.97;;;1.40;;
32533;SDS011;18973;48.580;8.912;2024-03-23T14:47:23;5.43;;;1.55;;
32533;SDS011;18973;48.580;8.912;2024-03-23T14:49:49;4.55;;;1.80;;
32533;SDS011;18973;48.580;8.912;2024-03-23T14:52:17;2.33;;;1.40;;
32533;SDS011;18973;48.580;8.912;2024-03-23T14:54:44;5.53;;;1.70;;
32533;SDS011;18973;48.580;8.912;2024-03-23T14:57:09;6.68;;;1.80;;
32533;SDS011;18973;48.580;8.912;2024-03-23T14:59:35;2.35;;;2.15;;
32533;SDS011;18973;48.580;8.912;2024-03-23T15:02:03;5.45;;;2.10;;
32533;SDS011;18973;48.580;8.912;2024-03-23T15:04:29;6.05;;;1.88;;
32533;SDS011;18973;48.580;8.912;2024-03-23T15:06:55;5.05;;;1.70;;
32533;SDS011;18973;48.580;8.912;2024-03-23T15:09:20;4.70;;;2.40;;
32533;SDS011;18973;48.580;8.912;2024-03-23T15:11:46;4.82;;;2.08;;
32533;SDS011;18973;48.580;8.912;2024-03-23T15:14:12;3.20;;;1.98;;
32533;SDS011;18973;48.580;8.912;2024-03-23T15:16:37;7.30;;;3.03;;
32533;SDS011;18973;48.580;8.912;2024-03-23T15:19:03;1.60;;;1.50;;
32533;SDS011;18973;48.580;8.912;2024-03-23T15:21:31;5.50;;;1.67;;
32533;SDS011;18973;48.580;8.912;2024-03-23T15:23:57;2.45;;;1.77;;
32533;SDS011;18973;48.580;8.912;2024-03-23T15:26:23;4.30;;;1.50;;
32533;SDS011;18973;48.580;8.912;2024-03-23T15:28:48;2.05;;;1.50;;
32533;SDS011;18973;48.580;8.912;2024-03-23T15:31:23;3.22;;;1.65;;
32533;SDS011;18973;48.580;8.912;2024-03-23T15:33:50;1.50;;;1.40;;
32533;SDS011;18973;48.580;8.912;2024-03-23T15:36:16;6.65;;;1.90;;
32533;SDS011;18973;48.580;8.912;2024-03-23T15:38:42;3.22;;;1.75;;
32533;SDS011;18973;48.580;8.912;2024-03-23T15:41:09;1.55;;;1.45;;
32533;SDS011;18973;48.580;8.912;2024-03-23T15:43:34;3.13;;;1.67;;
32533;SDS011;18973;48.580;8.912;2024-03-23T15:46:01;4.95;;;1.88;;
32533;SDS011;18973;48.580;8.912;2024-03-23T15:48:28;4.75;;;1.75;;
32533;SDS011;18973;48.580;8.912;2024-03-23T15:50:55;6.28;;;2.08;;
32533;SDS011;18973;48.580;8.912;2024-03-23T15:53:25;3.05;;;1.90;;
32533;SDS011;18973;48.580;8.912;2024-03-23T15:55:55;1.75;;;1.65;;